createdAt,value
2019-05-17T00:02:17.591Z,22.93
2019-05-17T00:04:52.017Z,24.97
2019-05-17T00:07:20.478Z,24.70
2019-05-17T00:09:49.313Z,25.67
2019-05-17T00:12:17.919Z,24.30
2019-05-17T00:14:47.303Z,25.40
2019-05-17T00:17:17.322Z,24.67
2019-05-17T00:19:46.527Z,24.03
2019-05-17T00:22:16.706Z,23.13
2019-05-17T00:24:47.541Z,24.33
2019-05-17T00:27:17.218Z,24.00
2019-05-17T00:29:46.497Z,24.13
2019-05-17T00:32:17.036Z,27.40
2019-05-17T00:34:47.030Z,25.33
2019-05-17T00:37:17.400Z,27.10
2019-05-17T00:39:47.159Z,25.27
2019-05-17T00:42:17.009Z,24.07
2019-05-17T00:44:47.411Z,23.80
2019-05-17T00:47:17.157Z,26.60
2019-05-17T00:49:46.532Z,25.67
2019-05-17T00:52:16.733Z,29.50
2019-05-17T00:54:46.929Z,29.37
2019-05-17T00:57:16.617Z,27.70
2019-05-17T00:59:47.378Z,26.40
2019-05-17T01:02:36.355Z,24.73
2019-05-17T01:05:07.456Z,26.67
2019-05-17T01:07:37.744Z,23.93
2019-05-17T01:10:08.556Z,22.70
2019-05-17T01:12:37.092Z,23.73
2019-05-17T01:15:09.894Z,25.23
2019-05-17T01:17:38.369Z,24.33
2019-05-17T01:20:07.887Z,28.23
2019-05-17T01:22:36.786Z,25.97
2019-05-17T01:25:08.730Z,27.70
2019-05-17T01:27:38.199Z,27.40
2019-05-17T01:30:08.492Z,25.93
2019-05-17T01:32:37.598Z,25.90
2019-05-17T01:35:07.645Z,26.50
2019-05-17T01:37:37.055Z,28.77
2019-05-17T01:40:07.075Z,30.67
2019-05-17T01:42:37.395Z,29.10
2019-05-17T01:45:07.704Z,29.03
2019-05-17T01:47:36.853Z,32.63
2019-05-17T01:50:08.167Z,32.43
2019-05-17T01:52:37.072Z,29.80
2019-05-17T01:55:10.396Z,26.40
2019-05-17T01:57:38.973Z,26.00
2019-05-17T02:00:09.717Z,32.57
2019-05-17T02:02:39.829Z,27.60
2019-05-17T02:05:10.125Z,26.63
2019-05-17T02:07:39.422Z,28.50
2019-05-17T02:10:09.673Z,26.30
2019-05-17T02:12:38.180Z,28.43
2019-05-17T02:15:11.065Z,26.23
2019-05-17T02:17:39.719Z,25.37
2019-05-17T02:20:10.846Z,26.00
2019-05-17T02:22:39.456Z,24.80
2019-05-17T02:25:10.444Z,22.87
2019-05-17T02:27:44.394Z,24.83
2019-05-17T02:30:13.998Z,24.80
2019-05-17T02:32:43.798Z,22.07
2019-05-17T02:35:14.769Z,23.47
2019-05-17T02:37:43.942Z,19.83
2019-05-17T02:40:15.066Z,22.27
2019-05-17T02:42:53.549Z,21.27
2019-05-17T02:45:23.376Z,20.83
2019-05-17T02:47:53.756Z,22.33
2019-05-17T02:50:23.376Z,21.80
2019-05-17T02:52:52.932Z,21.80
2019-05-17T02:55:23.315Z,21.67
2019-05-17T02:57:52.927Z,23.17
2019-05-17T03:00:23.878Z,20.67
2019-05-17T03:02:53.625Z,21.90
2019-05-17T03:05:23.267Z,20.60
2019-05-17T03:07:52.838Z,21.20
2019-05-17T03:10:27.558Z,21.37
2019-05-17T03:12:52.936Z,19.33
2019-05-17T03:15:23.427Z,18.43
2019-05-17T03:17:53.625Z,19.77
2019-05-17T03:20:23.189Z,17.23
2019-05-17T03:22:52.834Z,17.90
2019-05-17T03:25:23.824Z,16.20
2019-05-17T03:27:53.698Z,18.37
2019-05-17T03:30:25.792Z,17.77
2019-05-17T03:32:56.103Z,16.90
2019-05-17T03:35:26.433Z,17.17
2019-05-17T03:37:53.813Z,17.17
2019-05-17T03:40:46.317Z,14.63
2019-05-17T03:42:53.798Z,14.77
2019-05-17T03:45:22.970Z,14.93
2019-05-17T03:47:53.231Z,16.10
2019-05-17T03:50:22.687Z,16.43
2019-05-17T03:52:53.614Z,16.77
2019-05-17T03:55:23.550Z,16.70
2019-05-17T03:58:12.730Z,15.37
2019-05-17T04:00:42.805Z,17.70
2019-05-17T04:03:13.505Z,17.07
2019-05-17T04:05:42.898Z,17.77
2019-05-17T04:08:13.943Z,16.13
2019-05-17T04:10:42.693Z,16.07
2019-05-17T04:13:12.882Z,15.20
2019-05-17T04:15:43.387Z,15.40
2019-05-17T04:18:13.094Z,15.20
2019-05-17T04:21:03.447Z,14.80
2019-05-17T04:23:33.954Z,13.80
2019-05-17T04:26:04.140Z,14.77
2019-05-17T04:28:33.601Z,14.40
2019-05-17T04:31:02.918Z,14.50
2019-05-17T04:33:33.624Z,13.87
2019-05-17T04:36:02.805Z,14.33
2019-05-17T04:38:33.159Z,16.23
2019-05-17T04:41:03.262Z,18.13
2019-05-17T04:43:33.474Z,17.47
2019-05-17T04:46:02.999Z,13.97
2019-05-17T04:48:32.890Z,13.93
2019-05-17T04:51:02.733Z,13.50
2019-05-17T04:53:32.853Z,13.83
2019-05-17T04:56:03.144Z,13.87
2019-05-17T04:58:54.415Z,14.10
2019-05-17T05:01:23.612Z,15.03
2019-05-17T05:03:52.509Z,14.00
2019-05-17T05:06:23.368Z,14.00
2019-05-17T05:08:52.903Z,13.40
2019-05-17T05:11:23.274Z,14.10
2019-05-17T05:13:53.064Z,14.50
2019-05-17T05:16:22.589Z,13.67
2019-05-17T05:21:25.806Z,13.80
2019-05-17T05:23:54.368Z,13.60
2019-05-17T05:26:22.823Z,14.20
2019-05-17T05:28:52.863Z,13.13
2019-05-17T05:31:22.746Z,13.50
2019-05-17T05:33:58.707Z,14.23
2019-05-17T05:36:27.161Z,14.70
2019-05-17T05:38:55.627Z,13.83
2019-05-17T05:41:24.094Z,13.60
2019-05-17T05:43:52.770Z,14.27
2019-05-17T05:46:22.359Z,13.17
2019-05-17T05:49:01.742Z,14.60
2019-05-17T05:51:32.061Z,14.27
2019-05-17T05:54:01.668Z,14.57
2019-05-17T05:56:32.468Z,14.60
2019-05-17T05:59:02.712Z,14.67
2019-05-17T06:01:52.160Z,15.20
2019-05-17T06:04:22.291Z,14.43
2019-05-17T06:06:52.236Z,14.10
2019-05-17T06:09:22.353Z,13.17
2019-05-17T06:11:57.894Z,14.07
2019-05-17T06:14:26.384Z,13.77
2019-05-17T06:16:54.842Z,12.60
2019-05-17T06:19:23.317Z,14.67
2019-05-17T06:21:59.097Z,14.83
2019-05-17T06:24:27.579Z,14.17
2019-05-17T06:26:56.161Z,14.30
2019-05-17T06:29:24.687Z,15.53
2019-05-17T06:31:53.184Z,14.67
2019-05-17T06:34:22.294Z,15.17
2019-05-17T06:36:52.770Z,14.67
2019-05-17T06:39:22.415Z,13.30
2019-05-17T06:41:52.164Z,12.23
2019-05-17T06:44:21.606Z,12.70
2019-05-17T06:46:51.895Z,12.57
2019-05-17T06:49:22.419Z,13.20
2019-05-17T06:51:51.876Z,11.70
2019-05-17T06:54:21.572Z,12.17
2019-05-17T06:56:52.371Z,12.67
2019-05-17T06:59:20.482Z,13.43
2019-05-17T07:01:50.381Z,13.57
2019-05-17T07:04:19.371Z,13.47
2019-05-17T07:06:49.797Z,14.20
2019-05-17T07:09:19.489Z,13.60
2019-05-17T07:11:48.343Z,14.10
2019-05-17T07:14:16.823Z,12.60
2019-05-17T07:16:45.346Z,11.83
2019-05-17T07:19:13.844Z,11.60
2019-05-17T07:21:42.390Z,13.53
2019-05-17T07:24:19.554Z,14.13
2019-05-17T07:26:49.787Z,13.07
2019-05-17T07:29:19.364Z,14.00
2019-05-17T07:31:49.755Z,15.27
2019-05-17T07:34:19.958Z,16.03
2019-05-17T07:36:50.301Z,14.73
2019-05-17T07:39:20.455Z,15.27
2019-05-17T07:42:09.659Z,16.83
2019-05-17T07:45:10.106Z,17.80
2019-05-17T07:47:40.571Z,18.17
2019-05-17T07:50:21.834Z,19.50
2019-05-17T07:52:50.665Z,19.60
2019-05-17T07:55:22.884Z,20.40
2019-05-17T07:57:49.659Z,19.73
2019-05-17T08:00:20.353Z,20.83
2019-05-17T08:02:50.463Z,21.23
2019-05-17T08:05:40.281Z,20.23
2019-05-17T08:08:09.674Z,20.00
2019-05-17T08:10:40.930Z,20.23
2019-05-17T08:13:25.258Z,20.23
2019-05-17T08:15:39.852Z,19.57
2019-05-17T08:18:16.100Z,21.33
2019-05-17T08:20:44.559Z,20.47
2019-05-17T08:23:13.026Z,20.83
2019-05-17T08:25:52.621Z,22.67
2019-05-17T08:28:11.809Z,22.77
2019-05-17T08:30:41.149Z,22.17
2019-05-17T08:33:15.951Z,23.97
2019-05-17T08:35:44.437Z,22.93
2019-05-17T08:38:12.976Z,23.30
2019-05-17T08:40:41.738Z,22.60
2019-05-17T08:43:10.332Z,22.20
2019-05-17T08:45:40.672Z,22.40
2019-05-17T08:48:09.765Z,21.47
2019-05-17T08:50:40.393Z,22.40
2019-05-17T08:53:10.735Z,21.73
2019-05-17T08:55:40.791Z,21.73
2019-05-17T08:58:10.493Z,22.93
2019-05-17T09:00:40.540Z,21.87
2019-05-17T09:03:10.611Z,23.37
2019-05-17T09:05:41.852Z,22.00
2019-05-17T09:08:10.441Z,22.07
2019-05-17T09:10:40.740Z,21.17
2019-05-17T09:13:13.963Z,22.40
2019-05-17T09:15:40.445Z,22.03
2019-05-17T09:18:09.813Z,22.17
2019-05-17T09:20:40.669Z,23.40
2019-05-17T09:23:09.771Z,22.27
2019-05-17T09:25:59.559Z,23.30
2019-05-17T09:28:49.819Z,23.63
2019-05-17T09:31:17.595Z,21.53
2019-05-17T09:33:46.652Z,23.27
2019-05-17T09:36:15.132Z,21.40
2019-05-17T09:38:43.671Z,21.77
2019-05-17T09:41:12.209Z,21.03
2019-05-17T09:43:40.692Z,21.77
2019-05-17T09:46:10.628Z,21.23
2019-05-17T09:48:39.745Z,22.27
2019-05-17T09:51:10.487Z,24.13
2019-05-17T09:53:40.100Z,22.53
2019-05-17T09:56:30.170Z,25.20
2019-05-17T09:59:00.218Z,21.63
2019-05-17T10:01:30.320Z,22.50
2019-05-17T10:03:59.919Z,21.97
2019-05-17T10:06:28.480Z,23.27
2019-05-17T10:08:57.026Z,22.63
2019-05-17T10:11:25.527Z,19.40
2019-05-17T10:13:54.065Z,19.87
2019-05-17T10:16:22.601Z,20.07
2019-05-17T10:18:51.092Z,21.63
2019-05-17T10:21:19.981Z,20.07
2019-05-17T10:23:49.706Z,20.27
2019-05-17T10:26:19.722Z,19.27
2019-05-17T10:28:48.524Z,18.23
2019-05-17T10:31:17.064Z,18.77
2019-05-17T10:33:45.635Z,15.67
2019-05-17T10:36:14.227Z,15.27
2019-05-17T10:38:42.691Z,15.63
2019-05-17T10:41:11.160Z,13.50
2019-05-17T10:43:39.627Z,13.53
2019-05-17T10:46:10.356Z,12.60
2019-05-17T10:48:40.889Z,13.67
2019-05-17T10:51:09.634Z,13.13
2019-05-17T10:53:40.299Z,12.70
2019-05-17T10:56:10.036Z,12.30
2019-05-17T10:58:39.933Z,8.60
2019-05-17T11:01:10.247Z,9.00
2019-05-17T11:03:39.872Z,7.77
2019-05-17T11:06:10.938Z,8.47
2019-05-17T11:08:38.746Z,9.20
2019-05-17T11:11:07.312Z,8.70
2019-05-17T11:13:36.035Z,9.40
2019-05-17T11:16:04.567Z,9.30
2019-05-17T11:18:33.320Z,9.83
2019-05-17T11:21:01.862Z,8.97
2019-05-17T11:23:30.406Z,7.93
2019-05-17T11:25:58.954Z,8.47
2019-05-17T11:28:27.479Z,7.33
2019-05-17T11:30:55.934Z,6.67
2019-05-17T11:33:43.825Z,7.20
2019-05-17T11:36:12.309Z,7.07
2019-05-17T11:38:40.800Z,6.93
2019-05-17T11:41:28.662Z,6.80
2019-05-17T11:43:57.215Z,6.87
2019-05-17T11:46:35.666Z,6.37
2019-05-17T11:48:56.038Z,7.37
2019-05-17T11:51:27.239Z,6.63
2019-05-17T11:53:54.709Z,7.97
2019-05-17T11:56:23.182Z,7.47
2019-05-17T11:58:51.705Z,7.23
2019-05-17T12:01:20.176Z,7.37
2019-05-17T12:03:48.767Z,7.07
2019-05-17T12:06:17.561Z,7.47
2019-05-17T12:08:52.114Z,7.77
2019-05-17T12:11:20.936Z,7.80
2019-05-17T12:13:49.438Z,7.57
2019-05-17T12:16:17.888Z,8.43
2019-05-17T12:18:46.416Z,7.70
2019-05-17T12:21:14.979Z,8.27
2019-05-17T12:23:43.439Z,7.60
2019-05-17T12:26:11.963Z,8.43
2019-05-17T12:28:40.429Z,8.53
2019-05-17T12:31:08.980Z,9.13
2019-05-17T12:33:37.564Z,8.90
2019-05-17T12:36:06.282Z,8.40
2019-05-17T12:38:34.732Z,10.33
2019-05-17T12:41:03.238Z,9.87
2019-05-17T12:43:31.726Z,10.33
2019-05-17T12:46:01.686Z,10.00
2019-05-17T12:48:30.634Z,10.07
2019-05-17T12:50:59.468Z,10.00
2019-05-17T12:53:35.270Z,9.50
2019-05-17T12:56:03.818Z,10.27
2019-05-17T12:58:32.402Z,8.93
2019-05-17T13:01:00.895Z,10.00
2019-05-17T13:03:29.378Z,10.23
2019-05-17T13:05:57.830Z,9.33
2019-05-17T13:08:26.290Z,8.90
2019-05-17T13:10:54.751Z,8.40
2019-05-17T13:13:23.201Z,8.53
2019-05-17T13:15:51.673Z,6.67
2019-05-17T13:18:20.237Z,5.90
2019-05-17T13:20:48.795Z,5.73
2019-05-17T13:23:17.295Z,3.67
2019-05-17T13:25:46.307Z,3.67
2019-05-17T13:28:14.850Z,4.15
2019-05-17T13:30:43.321Z,3.92
2019-05-17T13:33:12.066Z,3.70
2019-05-17T13:35:40.543Z,4.25
2019-05-17T13:38:09.233Z,4.15
2019-05-17T13:40:48.209Z,4.85
2019-05-17T13:43:16.796Z,5.28
2019-05-17T13:45:45.740Z,5.65
2019-05-17T13:48:14.222Z,6.20
2019-05-17T13:50:42.703Z,6.17
2019-05-17T13:53:11.167Z,3.72
2019-05-17T13:55:39.632Z,4.60
2019-05-17T13:58:08.086Z,5.15
2019-05-17T14:00:36.548Z,5.20
2019-05-17T14:03:05.385Z,4.78
2019-05-17T14:05:33.978Z,4.72
2019-05-17T14:08:02.508Z,5.45
2019-05-17T14:10:32.269Z,4.87
2019-05-17T14:13:01.017Z,5.35
2019-05-17T14:15:29.482Z,5.17
2019-05-17T14:17:57.940Z,5.70
2019-05-17T14:20:26.481Z,4.92
2019-05-17T14:22:55.006Z,4.90
2019-05-17T14:25:23.483Z,4.58
2019-05-17T14:27:52.514Z,5.53
2019-05-17T14:30:21.056Z,5.50
2019-05-17T14:32:49.623Z,3.87
2019-05-17T14:35:18.149Z,4.90
2019-05-17T14:37:46.681Z,4.35
2019-05-17T14:40:16.973Z,3.85
2019-05-17T14:42:45.658Z,4.03
2019-05-17T14:45:14.668Z,4.05
2019-05-17T14:47:56.208Z,3.80
2019-05-17T14:50:24.739Z,4.28
2019-05-17T14:52:53.236Z,4.20
2019-05-17T14:55:21.695Z,4.73
2019-05-17T14:57:50.261Z,4.80
2019-05-17T15:00:19.032Z,4.30
2019-05-17T15:02:47.535Z,4.00
2019-05-17T15:05:16.334Z,4.23
2019-05-17T15:07:44.798Z,4.00
2019-05-17T15:10:14.070Z,4.67
2019-05-17T15:12:42.640Z,3.40
2019-05-17T15:15:12.999Z,3.73
2019-05-17T15:17:41.459Z,2.92
2019-05-17T15:20:10.268Z,3.40
2019-05-17T15:22:38.832Z,3.77
2019-05-17T15:25:08.039Z,3.40
2019-05-17T15:27:36.575Z,3.90
2019-05-17T15:30:09.685Z,3.73
2019-05-17T15:32:38.154Z,3.70
2019-05-17T15:35:07.615Z,6.13
2019-05-17T15:37:36.162Z,3.50
2019-05-17T15:40:06.231Z,3.40
2019-05-17T15:42:43.578Z,3.13
2019-05-17T15:45:07.651Z,3.17
2019-05-17T15:47:36.121Z,3.43
2019-05-17T15:50:06.795Z,3.23
2019-05-17T15:52:35.339Z,3.30
2019-05-17T15:55:05.429Z,2.87
2019-05-17T15:57:33.888Z,3.17
2019-05-17T16:00:02.731Z,4.07
2019-05-17T16:02:31.491Z,3.40
2019-05-17T16:04:59.941Z,3.20
2019-05-17T16:07:47.745Z,2.83
2019-05-17T16:10:17.038Z,3.20
2019-05-17T16:13:01.067Z,3.20
2019-05-17T16:15:15.756Z,3.27
2019-05-17T16:17:44.645Z,3.23
2019-05-17T16:20:16.847Z,5.30
2019-05-17T16:22:43.787Z,4.10
2019-05-17T16:25:12.507Z,6.80
2019-05-17T16:27:41.031Z,3.67
2019-05-17T16:30:10.684Z,3.77
2019-05-17T16:32:39.162Z,3.43
2019-05-17T16:35:08.847Z,3.80
2019-05-17T16:37:37.347Z,3.40
2019-05-17T16:40:07.423Z,3.53
2019-05-17T16:42:35.887Z,3.73
2019-05-17T16:45:06.760Z,3.80
2019-05-17T16:47:35.307Z,3.50
2019-05-17T16:50:06.225Z,3.43
2019-05-17T16:52:34.810Z,3.53
2019-05-17T16:55:04.719Z,3.40
2019-05-17T16:57:33.180Z,3.57
2019-05-17T17:00:01.669Z,3.60
2019-05-17T17:02:30.256Z,3.33
2019-05-17T17:04:58.715Z,3.20
2019-05-17T17:07:27.375Z,3.20
2019-05-17T17:09:55.844Z,3.70
2019-05-17T17:12:24.367Z,3.97
2019-05-17T17:14:52.843Z,3.70
2019-05-17T17:17:21.369Z,3.57
2019-05-17T17:19:49.852Z,3.50
2019-05-17T17:22:18.382Z,3.90
2019-05-17T17:24:46.856Z,4.97
2019-05-17T17:27:15.408Z,3.67
2019-05-17T17:29:43.936Z,3.60
2019-05-17T17:32:31.811Z,3.97
2019-05-17T17:35:00.284Z,3.97
2019-05-17T17:37:28.895Z,4.13
2019-05-17T17:39:57.693Z,4.30
2019-05-17T17:42:26.138Z,4.03
2019-05-17T17:44:55.215Z,4.17
2019-05-17T17:47:23.917Z,5.90
2019-05-17T17:49:52.405Z,4.87
2019-05-17T17:52:20.882Z,4.80
2019-05-17T17:54:49.338Z,4.53
2019-05-17T17:57:17.804Z,4.43
2019-05-17T17:59:46.279Z,12.40
2019-05-17T18:02:14.759Z,5.57
2019-05-17T18:05:02.866Z,4.93
2019-05-17T18:07:50.886Z,6.20
2019-05-17T18:10:31.394Z,5.87
2019-05-17T18:13:00.365Z,7.43
2019-05-17T18:15:37.991Z,7.37
2019-05-17T18:18:06.540Z,6.40
2019-05-17T18:20:35.067Z,6.33
2019-05-17T18:23:03.976Z,5.63
2019-05-17T18:25:32.588Z,6.67
2019-05-17T18:28:01.186Z,7.07
2019-05-17T18:30:29.720Z,6.20
2019-05-17T18:32:58.252Z,6.53
2019-05-17T18:35:26.948Z,6.47
2019-05-17T18:37:55.415Z,6.90
2019-05-17T18:40:23.957Z,6.87
2019-05-17T18:42:52.910Z,8.43
2019-05-17T18:45:21.917Z,8.60
2019-05-17T18:47:50.662Z,9.30
2019-05-17T18:50:23.113Z,9.77
2019-05-17T18:52:51.799Z,8.37
2019-05-17T18:55:20.413Z,8.60
2019-05-17T18:57:48.953Z,8.10
2019-05-17T19:00:19.574Z,14.67
2019-05-17T19:02:48.035Z,25.27
2019-05-17T19:05:18.158Z,18.77
2019-05-17T19:07:46.628Z,19.47
2019-05-17T19:10:15.835Z,17.43
2019-05-17T19:12:44.295Z,11.93
2019-05-17T19:15:13.797Z,12.43
2019-05-17T19:17:42.322Z,12.93
2019-05-17T19:20:11.417Z,12.13
2019-05-17T19:22:39.946Z,12.73
2019-05-17T19:25:09.751Z,13.30
2019-05-17T19:27:38.303Z,12.90
2019-05-17T19:30:08.893Z,14.87
2019-05-17T19:32:43.121Z,14.33
2019-05-17T19:35:12.190Z,13.57
2019-05-17T19:37:40.692Z,12.67
2019-05-17T19:40:09.895Z,13.27
2019-05-17T19:42:38.369Z,18.30
2019-05-17T19:45:09.753Z,15.63
2019-05-17T19:47:38.386Z,14.37
2019-05-17T19:50:08.944Z,15.57
2019-05-17T19:52:37.536Z,15.00
2019-05-17T19:55:09.946Z,19.10
2019-05-17T19:57:38.516Z,18.70
2019-05-17T20:00:08.891Z,17.20
2019-05-17T20:02:37.360Z,15.97
2019-05-17T20:05:06.267Z,20.13
2019-05-17T20:07:38.674Z,17.07
2019-05-17T20:10:09.382Z,17.80
2019-05-17T20:12:37.927Z,18.07
2019-05-17T20:15:17.266Z,16.63
2019-05-17T20:17:38.898Z,17.17
2019-05-17T20:20:08.103Z,16.17
2019-05-17T20:22:36.823Z,16.93
2019-05-17T20:25:06.403Z,17.87
2019-05-17T20:27:35.134Z,19.23
2019-05-17T20:30:06.362Z,20.83
2019-05-17T20:32:34.949Z,20.90
2019-05-17T20:35:04.550Z,21.70
2019-05-17T20:37:33.044Z,20.97
2019-05-17T20:40:01.544Z,19.50
2019-05-17T20:42:30.026Z,18.47
2019-05-17T20:44:58.554Z,20.67
2019-05-17T20:47:27.013Z,19.60
2019-05-17T20:50:08.349Z,18.93
2019-05-17T20:52:36.916Z,19.50
2019-05-17T20:55:06.011Z,21.03
2019-05-17T20:57:34.676Z,20.13
2019-05-17T21:00:05.401Z,19.57
2019-05-17T21:02:33.917Z,24.63
2019-05-17T21:05:02.529Z,25.40
2019-05-17T21:07:31.048Z,23.57
2019-05-17T21:09:59.513Z,22.33
2019-05-17T21:12:27.994Z,21.87
2019-05-17T21:14:56.698Z,20.50
2019-05-17T21:17:25.419Z,20.00
2019-05-17T21:19:53.883Z,21.43
2019-05-17T21:22:22.354Z,26.20
2019-05-17T21:24:50.825Z,27.37
2019-05-17T21:27:19.399Z,26.30
2019-05-17T21:29:47.943Z,27.07
2019-05-17T21:32:16.428Z,32.53
2019-05-17T21:34:44.995Z,30.83
2019-05-17T21:37:20.598Z,29.47
2019-05-17T21:39:49.141Z,29.97
2019-05-17T21:42:17.616Z,30.93
2019-05-17T21:44:46.147Z,31.37
2019-05-17T21:47:14.616Z,31.30
2019-05-17T21:49:43.099Z,29.13
2019-05-17T21:52:11.960Z,28.57
2019-05-17T21:54:40.426Z,25.27
2019-05-17T21:57:08.958Z,24.30
2019-05-17T21:59:37.422Z,25.07
2019-05-17T22:02:05.925Z,21.57
2019-05-17T22:04:34.461Z,19.33
2019-05-17T22:07:03.019Z,18.77
2019-05-17T22:09:31.559Z,18.63
2019-05-17T22:12:01.728Z,18.60
2019-05-17T22:14:30.248Z,16.03
2019-05-17T22:16:58.711Z,16.67
2019-05-17T22:19:27.216Z,15.70
2019-05-17T22:21:55.665Z,16.40
2019-05-17T22:24:24.126Z,14.07
2019-05-17T22:26:52.634Z,14.13
2019-05-17T22:29:21.094Z,14.33
2019-05-17T22:31:49.565Z,14.43
2019-05-17T22:34:18.055Z,14.20
2019-05-17T22:37:05.854Z,14.37
2019-05-17T22:39:34.321Z,13.43
2019-05-17T22:42:03.226Z,16.83
2019-05-17T22:44:31.762Z,17.43
2019-05-17T22:47:00.267Z,21.60
2019-05-17T22:49:28.796Z,25.87
2019-05-17T22:51:57.511Z,20.17
2019-05-17T22:54:26.615Z,20.33
2019-05-17T22:57:02.332Z,20.50
2019-05-17T22:59:30.892Z,18.57
2019-05-17T23:01:59.362Z,18.83
2019-05-17T23:04:38.490Z,17.40
2019-05-17T23:07:07.180Z,17.90
2019-05-17T23:09:35.649Z,20.10
2019-05-17T23:12:04.299Z,18.17
2019-05-17T23:14:32.763Z,15.40
2019-05-17T23:17:01.231Z,16.67
2019-05-17T23:19:40.203Z,17.97
2019-05-17T23:22:08.676Z,15.53
2019-05-17T23:24:37.212Z,13.93
2019-05-17T23:27:05.728Z,14.67
2019-05-17T23:29:34.340Z,13.83
2019-05-17T23:32:02.804Z,14.00
2019-05-17T23:34:31.334Z,13.73
2019-05-17T23:36:59.877Z,13.97
2019-05-17T23:39:28.360Z,12.93
2019-05-17T23:41:57.001Z,13.50
2019-05-17T23:44:25.552Z,13.23
2019-05-17T23:47:06.243Z,14.27
2019-05-17T23:49:24.590Z,13.27
2019-05-17T23:51:53.136Z,14.27
2019-05-17T23:54:21.653Z,14.27
2019-05-17T23:56:50.181Z,14.20
2019-05-17T23:59:18.674Z,13.80
